createdAt,value
2022-09-13T00:00:10.845Z,97847.7
2022-09-13T00:05:45.981Z,97847.7
2022-09-13T00:11:20.753Z,97847.2
2022-09-13T00:16:56.742Z,97867.8
2022-09-13T00:22:31.758Z,97855.3
2022-09-13T00:28:06.484Z,97869.4
2022-09-13T00:33:42.097Z,97888.8
2022-09-13T00:39:17.579Z,97878.2
2022-09-13T00:44:52.375Z,97867.7
2022-09-13T00:50:28.148Z,97863.8
2022-09-13T00:56:04.267Z,97840
2022-09-13T01:01:39.206Z,97832.7
2022-09-13T01:07:15.608Z,97830
2022-09-13T01:12:51.882Z,97829
2022-09-13T01:18:26.700Z,97832.7
2022-09-13T01:24:01.624Z,97825.8
2022-09-13T01:29:37.978Z,97794
2022-09-13T01:35:12.932Z,97776.1
2022-09-13T01:40:47.929Z,97766.2
2022-09-13T01:46:24.816Z,97747.5
2022-09-13T01:52:00.611Z,97743.8
2022-09-13T01:57:35.767Z,97750.1
2022-09-13T02:03:10.532Z,97748.2
2022-09-13T02:08:46.251Z,97748.4
2022-09-13T02:14:21.164Z,97749.8
2022-09-13T02:19:56.194Z,97737.6
2022-09-13T02:25:31.169Z,97739.7
2022-09-13T02:31:06.236Z,97730
2022-09-13T02:36:41.664Z,97726.8
2022-09-13T02:42:16.886Z,97719.1
2022-09-13T02:47:52.092Z,97717.5
2022-09-13T02:53:28.125Z,97708.1
2022-09-13T02:59:03.073Z,97722.6
2022-09-13T03:04:38.995Z,97749.6
2022-09-13T03:10:13.927Z,97789.2
2022-09-13T03:15:48.774Z,97826
2022-09-13T03:21:24.071Z,97804.1
2022-09-13T03:26:59.811Z,97761.3
2022-09-13T03:32:34.667Z,97713
2022-09-13T03:38:09.793Z,97694.5
2022-09-13T03:43:45.229Z,97715.9
2022-09-13T03:49:21.112Z,97707.4
2022-09-13T03:54:56.161Z,97691.7
2022-09-13T04:00:31.739Z,97682.7
2022-09-13T04:06:06.547Z,97683.6
2022-09-13T04:11:41.914Z,97686.9
2022-09-13T04:17:17.105Z,97702.7
2022-09-13T04:22:52.581Z,97692.6
2022-09-13T04:28:28.778Z,97659.3
2022-09-13T04:34:04.429Z,97648.8
2022-09-13T04:39:39.859Z,97640.7
2022-09-13T04:45:15.393Z,97637.5
2022-09-13T04:50:50.570Z,97638.7
2022-09-13T04:56:25.428Z,97632.4
2022-09-13T05:02:00.817Z,97626.3
2022-09-13T05:07:36.015Z,97618.3
2022-09-13T05:13:11.445Z,97622.4
2022-09-13T05:18:47.325Z,97630.7
2022-09-13T05:24:23.918Z,97629.2
2022-09-13T05:29:58.713Z,97633.8
2022-09-13T05:35:33.772Z,97618.5
2022-09-13T05:41:08.838Z,97624.1
2022-09-13T05:46:43.529Z,97617.3
2022-09-13T05:52:18.831Z,97613.3
2022-09-13T05:57:53.637Z,97614.2
2022-09-13T06:03:28.434Z,97624.3
2022-09-13T06:09:03.691Z,97624.2
2022-09-13T06:14:38.723Z,97618.1
2022-09-13T06:20:13.730Z,97616
2022-09-13T06:25:50.335Z,97616.4
2022-09-13T06:31:26.137Z,97624
2022-09-13T06:37:02.543Z,97632.2
2022-09-13T06:42:38.469Z,97635.3
2022-09-13T06:48:13.521Z,97639.6
2022-09-13T06:53:48.660Z,97638.4
2022-09-13T06:59:24.865Z,97626
2022-09-13T07:05:00.235Z,97603.5
2022-09-13T07:10:35.040Z,97597.9
2022-09-13T07:16:10.617Z,97603.6
2022-09-13T07:21:48.873Z,97604.8
2022-09-13T07:27:26.899Z,97612.6
2022-09-13T07:33:02.354Z,97608.5
2022-09-13T07:38:38.207Z,97594.3
2022-09-13T07:44:13.609Z,97593.1
2022-09-13T07:49:48.746Z,97601.5
2022-09-13T07:55:24.009Z,97613.7
2022-09-13T08:00:59.743Z,97618.1
2022-09-13T08:06:35.509Z,97624.5
2022-09-13T08:12:11.307Z,97626.7
2022-09-13T08:17:47.423Z,97649.8
2022-09-13T08:23:22.189Z,97658.9
2022-09-13T08:28:57.493Z,97672.6
2022-09-13T08:34:54.324Z,97692.7
2022-09-13T08:40:27.610Z,97682.4
2022-09-13T08:46:04.116Z,97686.5
2022-09-13T08:51:39.475Z,97673.3
2022-09-13T08:57:14.385Z,97663.9
2022-09-13T09:02:50.583Z,97646.8
2022-09-13T09:08:26.531Z,97633.5
2022-09-13T09:14:02.208Z,97647
2022-09-13T09:19:37.459Z,97657.2
2022-09-13T09:25:12.610Z,97642.3
2022-09-13T09:30:48.358Z,97624.2
2022-09-13T09:36:28.182Z,97616.2
2022-09-13T09:42:02.889Z,97627.2
2022-09-13T09:47:37.863Z,97636.1
2022-09-13T09:53:13.300Z,97620.7
2022-09-13T09:58:48.121Z,97605.8
2022-09-13T10:04:23.456Z,97606.1
2022-09-13T10:09:58.183Z,97611.3
2022-09-13T10:15:33.964Z,97613.5
2022-09-13T10:21:10.180Z,97614.1
2022-09-13T10:26:45.861Z,97621.5
2022-09-13T10:32:42.620Z,97622.6
2022-09-13T10:38:15.437Z,97639.4
2022-09-13T10:43:50.561Z,97642.8
2022-09-13T10:49:25.570Z,97643.8
2022-09-13T10:55:00.649Z,97651.8
2022-09-13T11:00:35.432Z,97648.2
2022-09-13T11:06:10.264Z,97664.3
2022-09-13T11:11:45.234Z,97669.4
2022-09-13T11:17:20.435Z,97659
2022-09-13T11:22:55.832Z,97652.8
2022-09-13T11:28:31.052Z,97647.2
2022-09-13T11:34:27.656Z,97642.7
2022-09-13T11:40:00.751Z,97663.8
2022-09-13T11:45:36.528Z,97643.6
2022-09-13T11:51:11.889Z,97657.8
2022-09-13T11:56:46.638Z,97648.9
2022-09-13T12:02:23.621Z,97642.1
2022-09-13T12:08:03.010Z,97649.2
2022-09-13T12:13:38.069Z,97659.4
2022-09-13T12:19:13.806Z,97693.3
2022-09-13T12:24:48.859Z,97677.1
2022-09-13T12:30:23.611Z,97669.2
2022-09-13T12:35:59.538Z,97683.6
2022-09-13T12:41:34.966Z,97667.2
2022-09-13T12:47:10.078Z,97646.3
2022-09-13T12:52:45.535Z,97634.3
2022-09-13T12:58:21.566Z,97623
2022-09-13T13:03:56.955Z,97624.9
2022-09-13T13:09:32.023Z,97624.2
2022-09-13T13:15:07.299Z,97622
2022-09-13T13:20:42.588Z,97612.3
2022-09-13T13:26:18.414Z,97594.9
2022-09-13T13:32:16.133Z,97574.5
2022-09-13T13:37:48.883Z,97565.3
2022-09-13T13:43:24.277Z,97562.1
2022-09-13T13:48:59.813Z,97556.2
2022-09-13T13:54:34.818Z,97548.7
2022-09-13T14:00:09.748Z,97537.2
2022-09-13T14:05:46.321Z,97530.8
2022-09-13T14:11:21.567Z,97534.7
2022-09-13T14:16:57.204Z,97523.8
2022-09-13T14:22:33.306Z,97526.8
2022-09-13T14:28:08.107Z,97510.5
2022-09-13T14:34:05.271Z,97510.6
2022-09-13T14:39:39.347Z,97526.3
2022-09-13T14:45:14.175Z,97532.5
2022-09-13T14:50:49.046Z,97535.4
2022-09-13T14:56:24.389Z,97524
2022-09-13T15:02:03.591Z,97527.7
2022-09-13T15:07:41.087Z,97532.1
2022-09-13T15:13:20.097Z,97554.5
2022-09-13T15:18:59.315Z,97561.6
2022-09-13T15:24:34.844Z,97564.2
2022-09-13T15:30:12.031Z,97574
2022-09-13T15:35:47.679Z,97603.3
2022-09-13T15:41:22.885Z,97604.4
2022-09-13T15:46:58.475Z,97597
2022-09-13T15:52:33.904Z,97594.6
2022-09-13T15:58:09.953Z,97601.5
2022-09-13T16:03:45.151Z,97619.3
2022-09-13T16:09:20.279Z,97625.8
2022-09-13T16:14:55.568Z,97628.1
2022-09-13T16:20:30.772Z,97627.7
2022-09-13T16:26:05.966Z,97620.5
2022-09-13T16:32:02.816Z,97600.5
2022-09-13T16:37:36.555Z,97587
2022-09-13T16:43:11.504Z,97589.5
2022-09-13T16:48:47.647Z,97590.4
2022-09-13T16:54:23.356Z,97605.5
2022-09-13T16:59:58.400Z,97615.9
2022-09-13T17:05:33.754Z,97647.7
2022-09-13T17:11:09.088Z,97605.7
2022-09-13T17:16:44.836Z,97598.3
2022-09-13T17:22:21.187Z,97619
2022-09-13T17:27:56.599Z,97606.5
2022-09-13T17:33:31.496Z,97612.6
2022-09-13T17:39:06.752Z,97606.2
2022-09-13T17:44:41.452Z,97619.9
2022-09-13T17:50:17.544Z,97611.3
2022-09-13T17:55:52.675Z,97606.4
2022-09-13T18:01:28.804Z,97611.6
2022-09-13T18:07:04.606Z,97561
2022-09-13T18:12:40.849Z,97563.5
2022-09-13T18:18:18.040Z,97595.8
2022-09-13T18:23:53.965Z,97601.6
2022-09-13T18:29:30.016Z,97611.4
2022-09-13T18:35:07.645Z,97618.9
2022-09-13T18:40:44.562Z,97635
2022-09-13T18:46:23.185Z,97628.1
2022-09-13T18:52:00.647Z,97604
2022-09-13T18:57:35.786Z,97598.3
2022-09-13T19:03:14.002Z,97608.2
2022-09-13T19:08:51.652Z,97597.8
2022-09-13T19:14:26.565Z,97595.1
2022-09-13T19:20:01.778Z,97601.1
2022-09-13T19:25:36.707Z,97605.5
2022-09-13T19:31:11.778Z,97590.5
2022-09-13T19:36:47.526Z,97597.5
2022-09-13T19:42:22.901Z,97610.7
2022-09-13T19:48:39.796Z,97600.4
2022-09-13T19:54:15.859Z,97597.5
2022-09-13T19:59:51.066Z,97602.5
2022-09-13T20:05:28.768Z,97622.7
2022-09-13T20:11:04.479Z,97644.9
2022-09-13T20:16:39.858Z,97654.6
2022-09-13T20:22:14.748Z,97678.6
2022-09-13T20:27:50.071Z,97674.9
2022-09-13T20:33:26.331Z,97637.5
2022-09-13T20:39:04.172Z,97619
2022-09-13T20:44:39.631Z,97618.7
2022-09-13T20:50:14.518Z,97665.3
2022-09-13T20:55:49.221Z,97658.8
2022-09-13T21:01:24.988Z,97668.5
2022-09-13T21:07:01.373Z,97663.7
2022-09-13T21:12:36.195Z,97647.4
2022-09-13T21:18:11.344Z,97650
2022-09-13T21:23:48.687Z,97660.3
2022-09-13T21:29:25.117Z,97659.9
2022-09-13T21:35:00.108Z,97651.9
2022-09-13T21:40:35.317Z,97645
2022-09-13T21:46:11.711Z,97651.6
2022-09-13T21:51:47.801Z,97695.1
2022-09-13T21:57:22.521Z,97676.9
2022-09-13T22:02:57.431Z,97681.8
2022-09-13T22:08:32.629Z,97694.8
2022-09-13T22:14:07.556Z,97678.3
2022-09-13T22:19:42.514Z,97680.9
2022-09-13T22:25:18.076Z,97686.4
2022-09-13T22:30:53.877Z,97664.5
2022-09-13T22:36:29.423Z,97656.5
2022-09-13T22:42:04.759Z,97673.4
2022-09-13T22:47:39.687Z,97655
2022-09-13T22:53:14.638Z,97647.9
2022-09-13T22:58:49.635Z,97664.3
2022-09-13T23:04:24.900Z,97683.7
2022-09-13T23:09:59.947Z,97691.5
2022-09-13T23:15:34.618Z,97692.1
2022-09-13T23:21:09.684Z,97702.5
2022-09-13T23:26:44.581Z,97698.6
2022-09-13T23:32:20.204Z,97691.7
2022-09-13T23:37:55.367Z,97694
2022-09-13T23:43:30.239Z,97676.3
2022-09-13T23:49:05.106Z,97669.9
2022-09-13T23:54:40.027Z,97677.3
